createdAt,value
2019-05-07T00:01:23.060Z,6.30
2019-05-07T00:03:52.977Z,6.20
2019-05-07T00:06:23.258Z,6.20
2019-05-07T00:08:53.572Z,6.10
2019-05-07T00:11:23.669Z,6.00
2019-05-07T00:13:53.802Z,6.00
2019-05-07T00:16:23.856Z,6.00
2019-05-07T00:18:53.938Z,6.00
2019-05-07T00:21:24.096Z,5.90
2019-05-07T00:23:54.369Z,5.90
2019-05-07T00:26:24.518Z,5.90
2019-05-07T00:28:54.785Z,5.80
2019-05-07T00:31:24.959Z,5.80
2019-05-07T00:33:55.180Z,5.70
2019-05-07T00:36:36.885Z,5.70
2019-05-07T00:39:17.905Z,5.60
2019-05-07T00:41:54.465Z,5.60
2019-05-07T00:44:25.010Z,5.50
2019-05-07T00:46:55.045Z,5.50
2019-05-07T00:49:26.912Z,5.50
2019-05-07T00:51:56.938Z,5.40
2019-05-07T00:54:26.997Z,5.30
2019-05-07T00:56:57.206Z,5.30
2019-05-07T00:59:27.278Z,5.20
2019-05-07T01:01:57.404Z,5.20
2019-05-07T01:04:27.576Z,5.10
2019-05-07T01:06:57.582Z,5.10
2019-05-07T01:09:27.718Z,5.00
2019-05-07T01:11:57.760Z,5.00
2019-05-07T01:14:27.824Z,4.90
2019-05-07T01:16:57.864Z,4.90
2019-05-07T01:19:27.942Z,4.90
2019-05-07T01:21:58.153Z,4.80
2019-05-07T01:24:29.583Z,4.80
2019-05-07T01:26:59.631Z,4.80
2019-05-07T01:29:29.696Z,4.80
2019-05-07T01:32:07.028Z,4.70
2019-05-07T01:34:46.727Z,4.70
2019-05-07T01:37:16.856Z,4.70
2019-05-07T01:39:47.091Z,4.70
2019-05-07T01:42:17.154Z,4.60
2019-05-07T01:44:47.240Z,4.60
2019-05-07T01:47:17.426Z,4.60
2019-05-07T01:49:47.584Z,4.60
2019-05-07T01:52:17.720Z,4.60
2019-05-07T01:54:47.818Z,4.60
2019-05-07T01:57:17.823Z,4.60
2019-05-07T01:59:48.097Z,4.60
2019-05-07T02:02:24.346Z,4.70
2019-05-07T02:05:03.266Z,4.70
2019-05-07T02:07:40.212Z,4.80
2019-05-07T02:10:29.306Z,4.80
2019-05-07T02:12:59.411Z,4.90
2019-05-07T02:15:29.559Z,4.90
2019-05-07T02:18:01.784Z,4.90
2019-05-07T02:20:32.177Z,5.00
2019-05-07T02:23:02.941Z,5.00
2019-05-07T02:25:33.319Z,5.00
2019-05-07T02:28:03.432Z,5.00
2019-05-07T02:30:34.938Z,4.90
2019-05-07T02:33:05.263Z,4.90
2019-05-07T02:35:35.375Z,4.90
2019-05-07T02:38:14.035Z,4.80
2019-05-07T02:41:03.289Z,4.80
2019-05-07T02:43:33.981Z,4.80
2019-05-07T02:46:30.556Z,4.80
2019-05-07T02:49:04.856Z,4.70
2019-05-07T02:51:43.867Z,4.70
2019-05-07T02:54:24.145Z,4.70
2019-05-07T02:56:54.699Z,4.70
2019-05-07T02:59:24.819Z,4.60
2019-05-07T03:01:54.975Z,4.60
2019-05-07T03:04:25.474Z,4.60
2019-05-07T03:06:55.870Z,4.60
2019-05-07T03:09:26.088Z,4.60
2019-05-07T03:11:56.356Z,4.60
2019-05-07T03:14:26.428Z,4.60
2019-05-07T03:16:56.662Z,4.60
2019-05-07T03:19:27.558Z,4.60
2019-05-07T03:21:57.714Z,4.60
2019-05-07T03:24:34.579Z,4.60
2019-05-07T03:27:05.004Z,4.60
2019-05-07T03:29:36.517Z,4.70
2019-05-07T03:32:38.395Z,4.70
2019-05-07T03:35:37.048Z,4.70
2019-05-07T03:38:05.102Z,4.60
2019-05-07T03:40:36.151Z,4.70
2019-05-07T03:43:06.549Z,4.70
2019-05-07T03:45:45.696Z,4.60
2019-05-07T03:48:17.721Z,4.60
2019-05-07T03:50:47.804Z,4.60
2019-05-07T03:53:17.862Z,4.50
2019-05-07T03:55:47.977Z,4.50
2019-05-07T03:58:18.091Z,4.50
2019-05-07T04:00:48.237Z,4.40
2019-05-07T04:03:19.782Z,4.40
2019-05-07T04:05:53.112Z,4.50
2019-05-07T04:08:23.664Z,4.50
2019-05-07T04:10:54.265Z,4.50
2019-05-07T04:13:24.672Z,4.50
2019-05-07T04:15:54.970Z,4.60
2019-05-07T04:18:25.114Z,4.60
2019-05-07T04:20:55.468Z,4.60
2019-05-07T04:23:25.663Z,4.60
2019-05-07T04:26:18.524Z,4.60
2019-05-07T04:29:05.755Z,4.60
2019-05-07T04:31:38.650Z,4.60
2019-05-07T04:34:14.411Z,4.70
2019-05-07T04:36:47.220Z,4.70
2019-05-07T04:39:22.927Z,4.70
2019-05-07T04:41:53.028Z,4.80
2019-05-07T04:44:23.667Z,4.90
2019-05-07T04:46:54.109Z,5.00
2019-05-07T04:49:24.261Z,5.10
2019-05-07T04:52:03.677Z,5.10
2019-05-07T04:54:33.026Z,5.20
2019-05-07T04:57:03.793Z,5.30
2019-05-07T04:59:34.371Z,5.30
2019-05-07T05:02:14.292Z,5.40
2019-05-07T05:04:44.430Z,5.50
2019-05-07T05:07:14.625Z,5.60
2019-05-07T05:09:44.850Z,5.70
2019-05-07T05:12:15.093Z,5.80
2019-05-07T05:14:45.155Z,5.80
2019-05-07T05:17:15.451Z,6.00
2019-05-07T05:19:45.614Z,6.10
2019-05-07T05:22:34.057Z,6.20
2019-05-07T05:25:22.713Z,6.30
2019-05-07T05:27:53.255Z,6.50
2019-05-07T05:30:32.703Z,6.60
2019-05-07T05:33:04.386Z,6.80
2019-05-07T05:35:34.723Z,6.90
2019-05-07T05:38:05.075Z,7.00
2019-05-07T05:40:35.119Z,7.20
2019-05-07T05:43:12.711Z,7.30
2019-05-07T05:45:44.218Z,7.40
2019-05-07T05:48:14.313Z,7.60
2019-05-07T05:51:09.349Z,7.70
2019-05-07T05:53:45.155Z,7.80
2019-05-07T05:56:24.289Z,7.90
2019-05-07T05:59:08.053Z,8.10
2019-05-07T06:01:57.678Z,8.20
2019-05-07T06:04:47.650Z,8.30
2019-05-07T06:07:28.733Z,8.50
2019-05-07T06:10:07.157Z,8.60
2019-05-07T06:12:42.914Z,8.80
2019-05-07T06:15:29.427Z,8.90
2019-05-07T06:18:21.017Z,9.00
2019-05-07T06:21:05.516Z,9.00
2019-05-07T06:23:47.037Z,9.00
2019-05-07T06:26:17.303Z,9.10
2019-05-07T06:28:47.642Z,9.10
2019-05-07T06:31:17.749Z,9.30
2019-05-07T06:33:47.870Z,9.40
2019-05-07T06:36:18.079Z,9.60
2019-05-07T06:38:57.362Z,9.90
2019-05-07T06:41:45.329Z,10.10
2019-05-07T06:44:19.267Z,10.30
2019-05-07T06:46:49.335Z,10.40
2019-05-07T06:49:19.461Z,10.50
2019-05-07T06:51:49.548Z,10.70
2019-05-07T06:54:19.937Z,10.70
2019-05-07T06:56:52.050Z,10.90
2019-05-07T06:59:34.314Z,11.00
2019-05-07T07:02:22.532Z,11.10
2019-05-07T07:05:06.348Z,11.30
2019-05-07T07:07:49.773Z,11.40
2019-05-07T07:10:44.896Z,11.50
2019-05-07T07:13:15.066Z,11.70
2019-05-07T07:15:45.137Z,11.90
2019-05-07T07:18:15.442Z,12.00
2019-05-07T07:20:48.409Z,12.10
2019-05-07T07:23:17.833Z,12.10
2019-05-07T07:25:47.938Z,12.20
2019-05-07T07:28:18.150Z,12.20
2019-05-07T07:31:07.342Z,12.20
2019-05-07T07:33:40.485Z,12.30
2019-05-07T07:36:12.027Z,12.50
2019-05-07T07:38:42.375Z,12.60
2019-05-07T07:41:28.332Z,12.90
2019-05-07T07:43:58.757Z,13.00
2019-05-07T07:46:29.309Z,13.10
2019-05-07T07:49:09.826Z,13.10
2019-05-07T07:51:40.637Z,12.90
2019-05-07T07:54:03.050Z,12.90
2019-05-07T07:56:56.731Z,13.00
2019-05-07T07:59:46.111Z,13.10
2019-05-07T08:02:22.997Z,13.40
2019-05-07T08:04:52.846Z,13.40
2019-05-07T08:07:23.568Z,13.40
2019-05-07T08:09:53.866Z,13.40
2019-05-07T08:12:25.892Z,13.40
2019-05-07T08:15:13.006Z,13.50
2019-05-07T08:17:28.043Z,13.60
2019-05-07T08:19:58.124Z,13.60
2019-05-07T08:22:28.210Z,13.70
2019-05-07T08:24:58.475Z,13.90
2019-05-07T08:27:28.530Z,13.90
2019-05-07T08:29:58.659Z,14.00
2019-05-07T08:32:39.243Z,13.90
2019-05-07T08:35:29.177Z,13.80
2019-05-07T08:37:59.287Z,13.70
2019-05-07T08:40:29.377Z,13.70
2019-05-07T08:42:59.786Z,13.80
2019-05-07T08:45:59.989Z,14.00
2019-05-07T08:48:38.390Z,14.00
2019-05-07T08:51:08.627Z,14.20
2019-05-07T08:53:38.702Z,14.50
2019-05-07T08:56:09.247Z,14.70
2019-05-07T08:58:52.644Z,15.00
2019-05-07T09:01:22.990Z,15.20
2019-05-07T09:03:53.326Z,15.40
2019-05-07T09:06:33.794Z,15.70
2019-05-07T09:09:12.844Z,15.90
2019-05-07T09:11:45.354Z,16.20
2019-05-07T09:14:15.406Z,16.50
2019-05-07T09:16:45.693Z,16.50
2019-05-07T09:19:15.772Z,16.30
2019-05-07T09:21:45.907Z,15.70
2019-05-07T09:24:16.043Z,15.30
2019-05-07T09:26:52.478Z,14.90
2019-05-07T09:29:36.138Z,14.50
2019-05-07T09:32:27.148Z,14.30
2019-05-07T09:34:57.872Z,14.10
2019-05-07T09:37:28.840Z,14.00
2019-05-07T09:39:59.616Z,13.90
2019-05-07T09:42:30.140Z,13.80
2019-05-07T09:45:01.952Z,13.90
2019-05-07T09:47:32.668Z,14.10
2019-05-07T09:50:07.560Z,14.20
2019-05-07T09:52:34.779Z,14.40
2019-05-07T09:55:14.138Z,14.50
2019-05-07T09:57:37.043Z,14.80
2019-05-07T10:00:08.680Z,15.10
2019-05-07T10:02:38.993Z,15.30
2019-05-07T10:05:09.397Z,15.40
2019-05-07T10:07:39.598Z,15.50
2019-05-07T10:10:11.958Z,15.50
2019-05-07T10:12:55.004Z,15.50
2019-05-07T10:15:25.418Z,15.50
2019-05-07T10:18:02.126Z,15.40
2019-05-07T10:20:32.901Z,15.30
2019-05-07T10:23:03.279Z,15.30
2019-05-07T10:25:39.667Z,15.00
2019-05-07T10:28:09.840Z,14.80
2019-05-07T10:30:40.004Z,14.70
2019-05-07T10:33:12.206Z,14.70
2019-05-07T10:35:43.430Z,14.70
2019-05-07T10:38:13.836Z,14.60
2019-05-07T10:40:43.918Z,14.80
2019-05-07T10:43:14.048Z,15.00
2019-05-07T10:46:02.409Z,15.00
2019-05-07T10:48:41.098Z,15.30
2019-05-07T10:51:12.063Z,15.70
2019-05-07T10:53:42.501Z,15.90
2019-05-07T10:56:12.690Z,16.40
2019-05-07T10:58:42.839Z,16.70
2019-05-07T11:01:15.016Z,17.10
2019-05-07T11:03:45.214Z,17.40
2019-05-07T11:06:15.620Z,17.40
2019-05-07T11:08:45.798Z,17.40
2019-05-07T11:11:17.725Z,17.20
2019-05-07T11:13:47.857Z,17.20
2019-05-07T11:16:19.573Z,17.10
2019-05-07T11:18:51.777Z,17.00
2019-05-07T11:21:33.462Z,16.70
2019-05-07T11:24:03.566Z,16.60
2019-05-07T11:26:33.828Z,16.50
2019-05-07T11:29:04.077Z,16.30
2019-05-07T11:31:34.194Z,16.40
2019-05-07T11:34:04.471Z,16.60
2019-05-07T11:36:34.627Z,16.90
2019-05-07T11:39:06.452Z,16.90
2019-05-07T11:41:55.561Z,17.00
2019-05-07T11:44:28.013Z,17.10
2019-05-07T11:47:12.178Z,17.20
2019-05-07T11:49:59.693Z,17.20
2019-05-07T11:52:35.833Z,17.20
2019-05-07T11:55:06.474Z,17.10
2019-05-07T11:57:36.967Z,16.90
2019-05-07T12:00:09.177Z,16.80
2019-05-07T12:02:39.271Z,16.80
2019-05-07T12:05:09.606Z,16.90
2019-05-07T12:07:41.902Z,17.10
2019-05-07T12:10:12.181Z,17.10
2019-05-07T12:12:47.864Z,17.10
2019-05-07T12:15:18.820Z,17.10
2019-05-07T12:17:48.904Z,17.10
2019-05-07T12:20:21.713Z,17.00
2019-05-07T12:22:52.146Z,17.00
2019-05-07T12:25:23.201Z,17.10
2019-05-07T12:27:53.995Z,17.40
2019-05-07T12:30:42.818Z,17.60
2019-05-07T12:33:19.998Z,17.70
2019-05-07T12:35:50.019Z,18.10
2019-05-07T12:38:21.923Z,18.40
2019-05-07T12:40:52.469Z,18.50
2019-05-07T12:43:22.639Z,18.40
2019-05-07T12:45:54.579Z,18.40
2019-05-07T12:48:24.869Z,18.50
2019-05-07T12:50:55.095Z,18.40
2019-05-07T12:53:42.526Z,18.30
2019-05-07T12:56:12.685Z,18.10
2019-05-07T12:58:42.937Z,18.00
2019-05-07T13:01:22.105Z,18.00
2019-05-07T13:04:12.896Z,18.00
2019-05-07T13:06:52.365Z,18.10
2019-05-07T13:09:22.682Z,18.30
2019-05-07T13:11:53.033Z,18.40
2019-05-07T13:14:23.081Z,18.50
2019-05-07T13:16:53.190Z,18.70
2019-05-07T13:19:23.277Z,18.70
2019-05-07T13:21:53.473Z,18.80
2019-05-07T13:24:23.603Z,18.80
2019-05-07T13:26:53.731Z,18.80
2019-05-07T13:29:23.824Z,19.00
2019-05-07T13:31:55.859Z,19.30
2019-05-07T13:34:26.076Z,19.70
2019-05-07T13:37:02.505Z,20.10
2019-05-07T13:40:02.542Z,20.30
2019-05-07T13:42:57.222Z,20.40
2019-05-07T13:45:48.971Z,20.30
2019-05-07T13:48:22.359Z,20.30
2019-05-07T13:50:53.964Z,20.20
2019-05-07T13:53:24.911Z,20.20
2019-05-07T13:55:55.344Z,20.00
2019-05-07T13:58:25.473Z,19.90
2019-05-07T14:01:04.931Z,19.90
2019-05-07T14:03:35.301Z,19.50
2019-05-07T14:06:05.592Z,19.30
2019-05-07T14:08:38.619Z,19.10
2019-05-07T14:11:08.925Z,18.90
2019-05-07T14:13:39.375Z,18.60
2019-05-07T14:16:11.857Z,18.50
2019-05-07T14:18:41.675Z,18.30
2019-05-07T14:21:12.959Z,18.10
2019-05-07T14:23:43.328Z,18.20
2019-05-07T14:26:13.550Z,18.40
2019-05-07T14:28:43.600Z,18.60
2019-05-07T14:31:13.765Z,18.60
2019-05-07T14:33:56.004Z,18.70
2019-05-07T14:36:43.726Z,18.70
2019-05-07T14:39:13.870Z,18.80
2019-05-07T14:41:43.923Z,18.90
2019-05-07T14:44:15.881Z,19.00
2019-05-07T14:46:51.643Z,19.00
2019-05-07T14:49:18.267Z,19.00
2019-05-07T14:51:48.321Z,18.80
2019-05-07T14:54:18.593Z,18.70
2019-05-07T14:56:48.926Z,18.60
2019-05-07T14:59:19.043Z,18.40
2019-05-07T15:01:49.451Z,18.50
2019-05-07T15:04:19.625Z,18.70
2019-05-07T15:06:51.571Z,18.90
2019-05-07T15:09:22.415Z,19.10
2019-05-07T15:11:52.937Z,19.30
2019-05-07T15:14:23.097Z,19.60
2019-05-07T15:16:55.305Z,20.00
2019-05-07T15:19:25.457Z,20.20
2019-05-07T15:21:59.405Z,20.50
2019-05-07T15:24:29.667Z,21.30
2019-05-07T15:26:59.809Z,22.70
2019-05-07T15:29:31.875Z,23.30
2019-05-07T15:32:06.644Z,23.90
2019-05-07T15:34:36.855Z,23.60
2019-05-07T15:37:06.958Z,23.10
2019-05-07T15:39:37.199Z,23.20
2019-05-07T15:42:08.685Z,23.10
2019-05-07T15:44:38.905Z,23.10
2019-05-07T15:47:13.835Z,22.50
2019-05-07T15:49:44.535Z,21.70
2019-05-07T15:52:22.165Z,20.80
2019-05-07T15:54:52.434Z,20.20
2019-05-07T15:57:26.806Z,19.70
2019-05-07T16:00:09.922Z,19.40
2019-05-07T16:02:45.304Z,19.10
2019-05-07T16:05:18.695Z,18.90
2019-05-07T16:07:51.374Z,18.70
2019-05-07T16:10:23.303Z,18.60
2019-05-07T16:12:54.430Z,18.40
2019-05-07T16:15:24.562Z,18.40
2019-05-07T16:18:02.778Z,18.20
2019-05-07T16:20:33.145Z,18.30
2019-05-07T16:23:13.991Z,18.30
2019-05-07T16:25:35.406Z,18.40
2019-05-07T16:28:05.564Z,18.30
2019-05-07T16:30:35.743Z,18.20
2019-05-07T16:33:05.880Z,18.30
2019-05-07T16:35:36.015Z,18.40
2019-05-07T16:38:06.131Z,18.30
2019-05-07T16:40:36.338Z,18.30
2019-05-07T16:43:06.411Z,18.20
2019-05-07T16:45:36.496Z,18.10
2019-05-07T16:48:06.562Z,18.20
2019-05-07T16:50:36.744Z,18.30
2019-05-07T16:53:06.907Z,18.50
2019-05-07T16:55:37.299Z,18.80
2019-05-07T16:58:15.628Z,19.00
2019-05-07T17:00:49.346Z,19.10
2019-05-07T17:03:23.896Z,19.10
2019-05-07T17:05:53.979Z,19.00
2019-05-07T17:08:43.074Z,19.00
2019-05-07T17:11:13.964Z,19.00
2019-05-07T17:13:44.187Z,18.90
2019-05-07T17:16:14.430Z,18.80
2019-05-07T17:18:44.584Z,18.70
2019-05-07T17:21:14.694Z,18.50
2019-05-07T17:23:44.893Z,18.20
2019-05-07T17:26:15.528Z,17.90
2019-05-07T17:28:45.790Z,17.70
2019-05-07T17:31:16.027Z,17.50
2019-05-07T17:33:46.217Z,17.30
2019-05-07T17:36:16.473Z,17.10
2019-05-07T17:38:46.569Z,17.00
2019-05-07T17:41:22.442Z,16.80
2019-05-07T17:43:48.660Z,16.70
2019-05-07T17:46:18.869Z,16.70
2019-05-07T17:48:49.244Z,16.80
2019-05-07T17:51:38.383Z,16.80
2019-05-07T17:54:08.519Z,16.70
2019-05-07T17:56:38.802Z,16.60
2019-05-07T17:59:09.147Z,16.40
2019-05-07T18:01:58.390Z,16.20
2019-05-07T18:04:29.381Z,16.10
2019-05-07T18:07:00.580Z,15.90
2019-05-07T18:09:31.975Z,15.70
2019-05-07T18:12:02.359Z,15.50
2019-05-07T18:14:32.576Z,15.40
2019-05-07T18:17:08.581Z,15.30
2019-05-07T18:19:39.037Z,15.20
2019-05-07T18:22:09.320Z,15.10
2019-05-07T18:24:39.527Z,15.00
2019-05-07T18:27:12.603Z,14.80
2019-05-07T18:29:42.861Z,14.80
2019-05-07T18:32:13.084Z,14.70
2019-05-07T18:34:43.361Z,14.60
2019-05-07T18:37:13.615Z,14.60
2019-05-07T18:39:43.796Z,14.50
2019-05-07T18:42:13.950Z,14.40
2019-05-07T18:44:44.125Z,14.30
2019-05-07T18:47:14.304Z,14.20
2019-05-07T18:49:44.905Z,14.20
2019-05-07T18:52:15.283Z,14.10
2019-05-07T18:54:47.995Z,13.90
2019-05-07T18:57:18.161Z,13.90
2019-05-07T18:59:48.386Z,13.80
2019-05-07T19:02:18.781Z,13.70
2019-05-07T19:04:49.295Z,13.60
2019-05-07T19:07:19.533Z,13.50
2019-05-07T19:09:51.625Z,13.40
2019-05-07T19:12:24.208Z,13.30
2019-05-07T19:14:54.381Z,13.20
2019-05-07T19:17:25.757Z,13.10
2019-05-07T19:19:55.954Z,12.90
2019-05-07T19:22:26.918Z,12.80
2019-05-07T19:24:57.006Z,12.70
2019-05-07T19:27:27.098Z,12.50
2019-05-07T19:29:57.176Z,12.40
2019-05-07T19:32:27.622Z,12.30
2019-05-07T19:34:57.844Z,12.10
2019-05-07T19:37:28.148Z,12.00
2019-05-07T19:39:58.245Z,11.90
2019-05-07T19:42:28.426Z,11.80
2019-05-07T19:44:58.518Z,11.80
2019-05-07T19:47:28.661Z,11.80
2019-05-07T19:49:58.841Z,11.70
2019-05-07T19:52:33.154Z,11.70
2019-05-07T19:55:04.892Z,11.70
2019-05-07T19:57:42.636Z,11.60
2019-05-07T20:00:13.295Z,11.60
2019-05-07T20:02:46.858Z,11.50
2019-05-07T20:05:17.252Z,11.40
2019-05-07T20:07:47.411Z,11.30
2019-05-07T20:10:24.448Z,11.20
2019-05-07T20:12:55.543Z,11.20
2019-05-07T20:15:26.127Z,11.20
2019-05-07T20:17:56.372Z,11.10
2019-05-07T20:20:26.484Z,11.10
2019-05-07T20:22:56.728Z,11.00
2019-05-07T20:25:26.883Z,11.00
2019-05-07T20:27:57.074Z,11.00
2019-05-07T20:30:27.343Z,11.00
2019-05-07T20:32:57.470Z,11.00
2019-05-07T20:35:27.643Z,11.00
2019-05-07T20:38:02.752Z,11.00
2019-05-07T20:40:33.393Z,10.90
2019-05-07T20:43:04.039Z,10.80
2019-05-07T20:45:34.520Z,10.80
2019-05-07T20:48:05.174Z,10.70
2019-05-07T20:50:37.635Z,10.60
2019-05-07T20:53:08.361Z,10.60
2019-05-07T20:55:57.563Z,10.50
2019-05-07T20:58:28.138Z,10.50
2019-05-07T21:00:58.422Z,10.40
2019-05-07T21:03:29.052Z,10.40
2019-05-07T21:06:02.152Z,10.40
2019-05-07T21:08:32.891Z,10.40
2019-05-07T21:11:03.755Z,10.40
2019-05-07T21:13:34.958Z,10.40
2019-05-07T21:16:07.516Z,10.40
2019-05-07T21:18:38.547Z,10.40
2019-05-07T21:21:09.533Z,10.30
2019-05-07T21:23:43.194Z,10.30
2019-05-07T21:26:13.487Z,10.30
2019-05-07T21:28:44.681Z,10.20
2019-05-07T21:31:16.411Z,10.20
2019-05-07T21:33:47.811Z,10.20
2019-05-07T21:36:18.715Z,10.20
2019-05-07T21:38:49.006Z,10.20
2019-05-07T21:41:22.365Z,10.20
2019-05-07T21:43:52.829Z,10.20
2019-05-07T21:46:23.994Z,10.10
2019-05-07T21:48:54.495Z,10.20
2019-05-07T21:51:25.561Z,10.20
2019-05-07T21:54:05.223Z,10.30
2019-05-07T21:56:54.544Z,10.40
2019-05-07T21:59:26.486Z,10.40
2019-05-07T22:02:02.064Z,10.50
2019-05-07T22:04:31.514Z,10.60
2019-05-07T22:07:02.921Z,10.60
2019-05-07T22:09:33.346Z,10.60
2019-05-07T22:12:03.886Z,10.60
2019-05-07T22:14:34.099Z,10.60
2019-05-07T22:17:05.719Z,10.60
2019-05-07T22:19:35.867Z,10.50
2019-05-07T22:22:05.966Z,10.60
2019-05-07T22:24:36.134Z,10.60
2019-05-07T22:27:06.382Z,10.60
2019-05-07T22:29:36.500Z,10.70
2019-05-07T22:32:25.657Z,10.70
2019-05-07T22:35:04.243Z,10.70
2019-05-07T22:37:34.398Z,10.80
2019-05-07T22:40:05.275Z,10.80
2019-05-07T22:42:35.551Z,10.90
2019-05-07T22:45:06.400Z,11.00
2019-05-07T22:47:36.477Z,10.90
2019-05-07T22:50:06.971Z,10.90
2019-05-07T22:52:37.120Z,11.00
2019-05-07T22:55:07.446Z,11.00
2019-05-07T22:57:56.538Z,11.00
2019-05-07T23:00:43.501Z,11.00
2019-05-07T23:03:13.908Z,10.90
2019-05-07T23:05:44.827Z,10.90
2019-05-07T23:08:15.260Z,10.90
2019-05-07T23:10:45.386Z,10.90
2019-05-07T23:13:15.398Z,10.90
2019-05-07T23:15:45.483Z,10.90
2019-05-07T23:18:15.518Z,10.80
2019-05-07T23:20:45.684Z,10.80
2019-05-07T23:23:15.718Z,10.70
2019-05-07T23:25:45.779Z,10.70
2019-05-07T23:28:15.800Z,10.70
2019-05-07T23:30:45.940Z,10.80
2019-05-07T23:33:15.984Z,10.70
2019-05-07T23:35:46.036Z,10.70
2019-05-07T23:38:16.145Z,10.70
2019-05-07T23:41:14.745Z,10.70
2019-05-07T23:44:03.843Z,10.70
2019-05-07T23:46:33.928Z,10.60
2019-05-07T23:49:03.974Z,10.60
2019-05-07T23:51:34.058Z,10.60
2019-05-07T23:54:04.380Z,10.60
2019-05-07T23:56:34.503Z,10.60
2019-05-07T23:59:04.816Z,10.60
